createdAt,value
2024-01-11T00:00:07.897Z,87.33
2024-01-11T00:00:40.288Z,85.67
2024-01-11T00:01:12.442Z,84.67
2024-01-11T00:01:46.994Z,82.67
2024-01-11T00:02:19.404Z,81.33
2024-01-11T00:02:51.540Z,81.33
2024-01-11T00:03:23.550Z,81.00
2024-01-11T00:03:55.556Z,81.33
2024-01-11T00:04:27.585Z,80.33
2024-01-11T00:04:59.777Z,80.00
2024-01-11T00:05:31.903Z,80.00
2024-01-11T00:06:04.328Z,80.00
2024-01-11T00:06:41.938Z,81.33
2024-01-11T00:07:14.159Z,82.00
2024-01-11T00:07:46.382Z,83.00
2024-01-11T00:08:18.436Z,83.67
2024-01-11T00:08:50.493Z,84.00
2024-01-11T00:09:23.858Z,84.00
2024-01-11T00:09:55.964Z,84.00
2024-01-11T00:10:28.122Z,83.67
2024-01-11T00:11:00.302Z,84.00
2024-01-11T00:11:32.399Z,84.00
2024-01-11T00:12:04.789Z,83.00
2024-01-11T00:12:36.930Z,83.00
2024-01-11T00:13:09.031Z,83.00
2024-01-11T00:13:41.059Z,83.00
2024-01-11T00:14:13.230Z,83.00
2024-01-11T00:14:45.331Z,83.00
2024-01-11T00:15:17.500Z,83.00
2024-01-11T00:15:49.603Z,83.00
2024-01-11T00:16:21.659Z,82.33
2024-01-11T00:16:53.738Z,82.33
2024-01-11T00:17:26.014Z,82.33
2024-01-11T00:17:58.282Z,82.67
2024-01-11T00:18:30.558Z,83.00
2024-01-11T00:19:02.828Z,83.00
2024-01-11T00:19:34.915Z,83.00
2024-01-11T00:20:08.525Z,83.00
2024-01-11T00:20:40.844Z,83.00
2024-01-11T00:21:12.954Z,82.67
2024-01-11T00:21:45.009Z,82.00
2024-01-11T00:22:17.332Z,82.00
2024-01-11T00:22:49.579Z,82.00
2024-01-11T00:23:21.683Z,82.00
2024-01-11T00:23:53.895Z,82.00
2024-01-11T00:24:27.600Z,82.00
2024-01-11T00:25:00.073Z,82.00
2024-01-11T00:25:32.127Z,82.00
2024-01-11T00:26:04.341Z,82.00
2024-01-11T00:26:36.439Z,82.00
2024-01-11T00:27:08.508Z,81.00
2024-01-11T00:27:40.749Z,81.00
2024-01-11T00:28:12.868Z,80.00
2024-01-11T00:28:45.051Z,80.00
2024-01-11T00:29:17.102Z,80.00
2024-01-11T00:29:49.345Z,80.00
2024-01-11T00:30:21.466Z,80.00
2024-01-11T00:30:53.580Z,79.00
2024-01-11T00:31:25.622Z,79.00
2024-01-11T00:31:57.718Z,79.00
2024-01-11T00:32:29.994Z,79.00
2024-01-11T00:33:04.159Z,79.00
2024-01-11T00:33:36.466Z,79.00
2024-01-11T00:34:08.684Z,79.00
2024-01-11T00:34:40.770Z,79.00
2024-01-11T00:35:12.894Z,79.00
2024-01-11T00:35:45.214Z,79.00
2024-01-11T00:36:19.256Z,79.00
2024-01-11T00:36:51.256Z,79.00
2024-01-11T00:37:23.246Z,79.00
2024-01-11T00:37:55.340Z,79.00
2024-01-11T00:38:27.460Z,78.33
2024-01-11T00:38:59.665Z,78.67
2024-01-11T00:39:33.256Z,79.00
2024-01-11T00:40:06.542Z,78.33
2024-01-11T00:40:38.656Z,78.00
2024-01-11T00:41:10.724Z,78.00
2024-01-11T00:41:42.861Z,78.00
2024-01-11T00:42:14.891Z,78.00
2024-01-11T00:42:47.011Z,78.67
2024-01-11T00:43:19.036Z,79.00
2024-01-11T00:43:51.410Z,78.67
2024-01-11T00:44:23.577Z,78.00
2024-01-11T00:44:55.654Z,78.33
2024-01-11T00:45:27.642Z,79.00
2024-01-11T00:45:59.696Z,79.00
2024-01-11T00:46:31.828Z,79.00
2024-01-11T00:47:04.085Z,79.00
2024-01-11T00:47:36.214Z,79.00
2024-01-11T00:48:08.489Z,79.00
2024-01-11T00:48:40.761Z,79.00
2024-01-11T00:49:12.959Z,79.00
2024-01-11T00:49:45.308Z,79.00
2024-01-11T00:50:17.665Z,79.00
2024-01-11T00:50:49.733Z,79.00
2024-01-11T00:51:21.794Z,79.00
2024-01-11T00:51:53.901Z,78.33
2024-01-11T00:52:26.056Z,78.00
2024-01-11T00:52:58.297Z,78.00
2024-01-11T00:53:30.568Z,78.00
2024-01-11T00:54:02.729Z,77.67
2024-01-11T00:54:36.786Z,77.00
2024-01-11T00:55:09.085Z,77.00
2024-01-11T00:55:41.257Z,77.00
2024-01-11T00:56:20.227Z,77.00
2024-01-11T00:56:52.276Z,76.33
2024-01-11T00:57:24.479Z,76.00
2024-01-11T00:57:56.594Z,76.00
2024-01-11T00:58:28.942Z,76.00
2024-01-11T00:59:01.758Z,76.00
2024-01-11T00:59:33.997Z,76.00
2024-01-11T01:00:07.705Z,76.00
2024-01-11T01:00:39.801Z,76.00
2024-01-11T01:01:12.224Z,76.33
2024-01-11T01:01:48.518Z,77.00
2024-01-11T01:02:21.441Z,76.33
2024-01-11T01:02:54.557Z,76.00
2024-01-11T01:03:26.581Z,76.00
2024-01-11T01:03:59.677Z,76.00
2024-01-11T01:04:31.748Z,75.67
2024-01-11T01:05:04.707Z,75.00
2024-01-11T01:05:36.873Z,75.00
2024-01-11T01:06:09.036Z,74.67
2024-01-11T01:06:42.847Z,74.00
2024-01-11T01:07:15.040Z,74.00
2024-01-11T01:07:47.244Z,74.00
2024-01-11T01:08:19.508Z,73.67
2024-01-11T01:08:51.628Z,73.00
2024-01-11T01:09:23.694Z,73.00
2024-01-11T01:09:57.140Z,73.00
2024-01-11T01:10:29.267Z,73.00
2024-01-11T01:11:01.389Z,73.00
2024-01-11T01:11:33.609Z,73.00
2024-01-11T01:12:06.427Z,72.00
2024-01-11T01:12:38.508Z,72.00
2024-01-11T01:13:10.700Z,72.00
2024-01-11T01:13:42.713Z,72.00
2024-01-11T01:14:14.730Z,71.00
2024-01-11T01:14:46.908Z,71.00
2024-01-11T01:15:18.935Z,70.00
2024-01-11T01:15:51.108Z,69.00
2024-01-11T01:16:23.126Z,68.33
2024-01-11T01:16:55.164Z,68.00
2024-01-11T01:17:27.281Z,68.00
2024-01-11T01:17:59.629Z,67.33
2024-01-11T01:18:32.053Z,67.00
2024-01-11T01:19:04.195Z,66.33
2024-01-11T01:19:36.580Z,66.00
2024-01-11T01:20:09.690Z,65.33
2024-01-11T01:20:41.934Z,65.00
2024-01-11T01:21:14.191Z,65.00
2024-01-11T01:21:46.230Z,64.33
2024-01-11T01:22:18.339Z,64.00
2024-01-11T01:22:50.672Z,64.00
2024-01-11T01:23:22.925Z,64.00
2024-01-11T01:23:55.090Z,64.00
2024-01-11T01:24:27.374Z,64.00
2024-01-11T01:25:00.923Z,64.00
2024-01-11T01:25:33.023Z,64.00
2024-01-11T01:26:07.379Z,64.00
2024-01-11T01:26:39.895Z,64.00
2024-01-11T01:27:12.028Z,64.00
2024-01-11T01:27:44.077Z,64.00
2024-01-11T01:28:16.166Z,64.00
2024-01-11T01:28:48.230Z,64.33
2024-01-11T01:29:20.399Z,65.00
2024-01-11T01:29:52.425Z,65.00
2024-01-11T01:30:24.541Z,65.67
2024-01-11T01:30:56.689Z,66.00
2024-01-11T01:31:28.698Z,66.00
2024-01-11T01:32:00.942Z,66.00
2024-01-11T01:32:33.141Z,66.33
2024-01-11T01:33:05.684Z,67.00
2024-01-11T01:33:38.029Z,67.00
2024-01-11T01:34:10.263Z,67.00
2024-01-11T01:34:42.917Z,67.00
2024-01-11T01:35:15.975Z,68.00
2024-01-11T01:35:48.033Z,68.00
2024-01-11T01:36:20.067Z,68.00
2024-01-11T01:36:52.121Z,68.33
2024-01-11T01:37:24.234Z,69.00
2024-01-11T01:37:57.026Z,69.00
2024-01-11T01:38:29.152Z,70.00
2024-01-11T01:39:01.319Z,70.67
2024-01-11T01:39:33.556Z,71.00
2024-01-11T01:40:08.468Z,71.67
2024-01-11T01:40:40.538Z,72.00
2024-01-11T01:41:12.614Z,72.00
2024-01-11T01:41:44.747Z,72.33
2024-01-11T01:42:17.103Z,73.00
2024-01-11T01:42:49.635Z,74.00
2024-01-11T01:43:21.732Z,75.00
2024-01-11T01:43:53.950Z,75.00
2024-01-11T01:44:26.107Z,75.67
2024-01-11T01:44:58.249Z,76.00
2024-01-11T01:45:30.369Z,76.67
2024-01-11T01:46:03.194Z,77.00
2024-01-11T01:46:36.121Z,78.00
2024-01-11T01:47:09.973Z,78.33
2024-01-11T01:47:43.235Z,79.00
2024-01-11T01:48:15.680Z,79.33
2024-01-11T01:48:48.129Z,80.00
2024-01-11T01:49:20.460Z,80.67
2024-01-11T01:49:53.937Z,81.00
2024-01-11T01:50:27.530Z,82.33
2024-01-11T01:50:59.863Z,83.00
2024-01-11T01:51:33.573Z,83.00
2024-01-11T01:52:08.695Z,84.00
2024-01-11T01:52:44.394Z,84.00
2024-01-11T01:53:16.680Z,84.33
2024-01-11T01:53:52.173Z,85.00
2024-01-11T01:54:25.562Z,86.00
2024-01-11T01:54:59.813Z,87.33
2024-01-11T01:55:33.696Z,88.00
2024-01-11T01:56:07.325Z,88.00
2024-01-11T01:56:39.783Z,88.00
2024-01-11T01:57:14.081Z,88.00
2024-01-11T01:57:48.969Z,88.00
2024-01-11T01:58:22.626Z,89.00
2024-01-11T01:58:56.036Z,89.00
2024-01-11T01:59:30.607Z,89.00
2024-01-11T02:00:03.674Z,89.00
2024-01-11T02:00:35.902Z,89.00
2024-01-11T02:01:11.914Z,89.00
2024-01-11T02:01:44.579Z,89.00
2024-01-11T02:02:17.487Z,89.00
2024-01-11T02:02:52.205Z,89.00
2024-01-11T02:03:28.932Z,89.00
2024-01-11T02:04:01.398Z,89.00
2024-01-11T02:04:33.716Z,89.00
2024-01-11T02:05:07.630Z,89.00
2024-01-11T02:05:40.209Z,89.00
2024-01-11T02:06:12.765Z,89.00
2024-01-11T02:06:47.628Z,89.00
2024-01-11T02:07:20.347Z,89.00
2024-01-11T02:07:52.825Z,89.00
2024-01-11T02:08:26.948Z,89.00
2024-01-11T02:09:01.624Z,89.00
2024-01-11T02:09:35.013Z,89.00
2024-01-11T02:10:08.831Z,89.00
2024-01-11T02:10:43.167Z,89.00
2024-01-11T02:11:16.351Z,89.00
2024-01-11T02:11:49.384Z,89.00
2024-01-11T02:12:21.876Z,90.00
2024-01-11T02:12:54.185Z,90.00
2024-01-11T02:13:26.429Z,89.33
2024-01-11T02:13:59.469Z,89.00
2024-01-11T02:14:32.425Z,89.00
2024-01-11T02:15:05.678Z,88.00
2024-01-11T02:15:37.739Z,88.00
2024-01-11T02:16:09.952Z,88.00
2024-01-11T02:16:42.148Z,88.00
2024-01-11T02:17:14.277Z,88.00
2024-01-11T02:17:46.883Z,88.00
2024-01-11T02:18:19.458Z,87.33
2024-01-11T02:18:51.688Z,87.00
2024-01-11T02:19:23.988Z,87.00
2024-01-11T02:19:56.111Z,87.00
2024-01-11T02:20:28.341Z,86.67
2024-01-11T02:21:01.337Z,86.00
2024-01-11T02:21:35.406Z,84.33
2024-01-11T02:22:16.510Z,83.00
2024-01-11T02:22:54.319Z,80.67
2024-01-11T02:23:28.410Z,79.33
2024-01-11T02:24:07.673Z,78.00
2024-01-11T02:24:39.798Z,77.00
2024-01-11T02:25:12.084Z,76.33
2024-01-11T02:25:44.266Z,76.00
2024-01-11T02:26:16.414Z,76.00
2024-01-11T02:26:59.591Z,75.33
2024-01-11T02:27:31.800Z,74.67
2024-01-11T02:28:04.496Z,73.67
2024-01-11T02:28:36.773Z,72.67
2024-01-11T02:29:08.822Z,71.33
2024-01-11T02:29:41.045Z,71.00
2024-01-11T02:30:13.807Z,71.00
2024-01-11T02:30:45.971Z,70.00
2024-01-11T02:31:18.132Z,70.00
2024-01-11T02:31:50.562Z,70.00
2024-01-11T02:32:23.524Z,70.00
2024-01-11T02:32:56.589Z,70.00
2024-01-11T02:33:29.077Z,70.00
2024-01-11T02:34:01.577Z,70.67
2024-01-11T02:34:35.425Z,71.00
2024-01-11T02:35:08.605Z,71.00
2024-01-11T02:35:43.076Z,71.00
2024-01-11T02:36:17.967Z,71.00
2024-01-11T02:36:50.850Z,71.67
2024-01-11T02:37:28.715Z,72.00
2024-01-11T02:38:01.885Z,72.00
2024-01-11T02:38:35.749Z,72.00
2024-01-11T02:39:09.199Z,72.00
2024-01-11T02:39:42.225Z,72.00
2024-01-11T02:40:15.299Z,72.00
2024-01-11T02:40:47.790Z,71.67
2024-01-11T02:41:20.354Z,71.00
2024-01-11T02:41:54.435Z,71.00
2024-01-11T02:42:26.477Z,71.00
2024-01-11T02:42:58.538Z,71.00
2024-01-11T02:43:30.578Z,70.00
2024-01-11T02:44:02.675Z,69.33
2024-01-11T02:44:35.045Z,69.00
2024-01-11T02:45:08.232Z,69.00
2024-01-11T02:45:40.360Z,68.00
2024-01-11T02:46:12.757Z,67.00
2024-01-11T02:46:44.808Z,66.33
2024-01-11T02:47:16.845Z,65.00
2024-01-11T02:47:49.162Z,64.33
2024-01-11T02:48:21.428Z,63.00
2024-01-11T02:48:53.866Z,63.00
2024-01-11T02:49:26.006Z,62.00
2024-01-11T02:49:58.155Z,62.00
2024-01-11T02:50:30.245Z,62.00
2024-01-11T02:51:02.291Z,62.00
2024-01-11T02:51:34.454Z,62.00
2024-01-11T02:52:06.679Z,62.00
2024-01-11T02:52:38.671Z,61.67
2024-01-11T02:53:10.743Z,61.33
2024-01-11T02:53:42.774Z,61.00
2024-01-11T02:54:16.244Z,62.00
2024-01-11T02:54:50.321Z,62.00
2024-01-11T02:55:22.308Z,62.00
2024-01-11T02:55:54.395Z,62.00
2024-01-11T02:56:26.516Z,62.00
2024-01-11T02:56:58.541Z,62.00
2024-01-11T02:57:30.632Z,62.00
2024-01-11T02:58:02.667Z,62.00
2024-01-11T02:58:34.696Z,62.00
2024-01-11T02:59:07.004Z,62.00
2024-01-11T02:59:39.016Z,62.00
2024-01-11T03:00:12.249Z,62.00
2024-01-11T03:00:44.337Z,62.00
2024-01-11T03:01:16.620Z,62.00
2024-01-11T03:01:48.818Z,62.00
2024-01-11T03:02:21.118Z,62.00
2024-01-11T03:02:53.147Z,62.00
2024-01-11T03:03:25.294Z,62.00
2024-01-11T03:03:58.282Z,62.00
2024-01-11T03:04:30.452Z,62.00
2024-01-11T03:05:02.587Z,61.00
2024-01-11T03:05:34.866Z,61.00
2024-01-11T03:06:07.362Z,60.00
2024-01-11T03:06:39.527Z,60.00
2024-01-11T03:07:11.682Z,60.00
2024-01-11T03:07:43.674Z,60.00
2024-01-11T03:08:15.735Z,60.00
2024-01-11T03:08:47.770Z,60.00
2024-01-11T03:09:21.322Z,60.00
2024-01-11T03:09:53.426Z,60.00
2024-01-11T03:10:25.459Z,60.00
2024-01-11T03:10:57.522Z,60.00
2024-01-11T03:11:29.606Z,60.00
2024-01-11T03:12:01.784Z,60.00
2024-01-11T03:12:33.935Z,60.00
2024-01-11T03:13:06.994Z,60.00
2024-01-11T03:13:38.979Z,59.00
2024-01-11T03:14:11.073Z,59.00
2024-01-11T03:14:43.322Z,59.00
2024-01-11T03:15:15.720Z,59.00
2024-01-11T03:15:47.959Z,58.67
2024-01-11T03:16:20.012Z,58.00
2024-01-11T03:16:52.118Z,58.00
2024-01-11T03:17:24.423Z,58.00
2024-01-11T03:17:56.783Z,58.00
2024-01-11T03:18:29.000Z,58.00
2024-01-11T03:19:01.313Z,58.00
2024-01-11T03:19:33.397Z,57.67
2024-01-11T03:20:06.198Z,57.00
2024-01-11T03:20:38.412Z,57.00
2024-01-11T03:21:10.471Z,57.00
2024-01-11T03:21:43.503Z,57.00
2024-01-11T03:22:15.576Z,57.00
2024-01-11T03:22:47.630Z,56.67
2024-01-11T03:23:20.151Z,56.00
2024-01-11T03:23:52.356Z,56.00
2024-01-11T03:24:25.761Z,56.00
2024-01-11T03:24:57.834Z,56.00
2024-01-11T03:25:30.706Z,56.00
2024-01-11T03:26:02.843Z,56.00
2024-01-11T03:26:35.586Z,56.00
2024-01-11T03:27:07.762Z,56.00
2024-01-11T03:27:39.813Z,56.00
2024-01-11T03:28:11.873Z,56.67
2024-01-11T03:28:44.041Z,56.00
2024-01-11T03:29:16.270Z,57.00
2024-01-11T03:29:51.219Z,57.00
2024-01-11T03:30:23.254Z,57.67
2024-01-11T03:30:55.364Z,58.00
2024-01-11T03:31:27.472Z,58.00
2024-01-11T03:31:59.669Z,58.00
2024-01-11T03:32:31.889Z,58.00
2024-01-11T03:33:04.471Z,58.00
2024-01-11T03:33:36.809Z,58.00
2024-01-11T03:34:09.032Z,58.00
2024-01-11T03:34:41.134Z,57.67
2024-01-11T03:35:13.348Z,57.00
2024-01-11T03:35:45.470Z,57.00
2024-01-11T03:36:17.647Z,57.00
2024-01-11T03:36:49.741Z,56.67
2024-01-11T03:37:21.832Z,56.00
2024-01-11T03:37:54.084Z,56.00
2024-01-11T03:38:26.305Z,56.00
2024-01-11T03:38:58.620Z,56.00
2024-01-11T03:39:32.039Z,56.00
2024-01-11T03:40:05.212Z,56.00
2024-01-11T03:40:37.299Z,55.67
2024-01-11T03:41:10.321Z,55.00
2024-01-11T03:41:44.923Z,55.00
2024-01-11T03:42:16.947Z,55.00
2024-01-11T03:42:49.178Z,55.00
2024-01-11T03:43:21.207Z,55.00
2024-01-11T03:43:53.263Z,55.00
2024-01-11T03:44:25.359Z,54.33
2024-01-11T03:44:57.603Z,54.00
2024-01-11T03:45:29.681Z,54.00
2024-01-11T03:46:01.858Z,54.00
2024-01-11T03:46:33.853Z,53.00
2024-01-11T03:47:06.067Z,53.00
2024-01-11T03:47:38.294Z,53.00
2024-01-11T03:48:10.655Z,53.00
2024-01-11T03:48:42.879Z,53.00
2024-01-11T03:49:15.031Z,52.00
2024-01-11T03:49:47.095Z,52.00
2024-01-11T03:50:19.175Z,52.00
2024-01-11T03:50:51.323Z,51.00
2024-01-11T03:51:23.995Z,51.00
2024-01-11T03:51:56.100Z,51.00
2024-01-11T03:52:28.231Z,51.00
2024-01-11T03:53:00.364Z,51.00
2024-01-11T03:53:36.036Z,51.00
2024-01-11T03:54:08.223Z,51.00
2024-01-11T03:54:41.658Z,51.00
2024-01-11T03:55:13.745Z,51.00
2024-01-11T03:55:45.842Z,51.00
2024-01-11T03:56:17.942Z,51.00
2024-01-11T03:56:50.126Z,51.33
2024-01-11T03:57:22.976Z,52.00
2024-01-11T03:57:54.966Z,52.00
2024-01-11T03:58:27.165Z,52.00
2024-01-11T03:58:59.207Z,52.00
2024-01-11T03:59:31.499Z,52.67
2024-01-11T04:00:04.012Z,53.00
2024-01-11T04:00:36.053Z,53.00
2024-01-11T04:01:08.378Z,53.00
2024-01-11T04:01:41.586Z,53.00
2024-01-11T04:02:13.841Z,53.00
2024-01-11T04:02:45.899Z,53.00
2024-01-11T04:03:18.024Z,52.00
2024-01-11T04:03:50.106Z,52.00
2024-01-11T04:04:22.323Z,52.00
2024-01-11T04:04:54.613Z,52.00
2024-01-11T04:05:26.715Z,52.00
2024-01-11T04:05:58.899Z,52.00
2024-01-11T04:06:30.981Z,52.00
2024-01-11T04:07:03.070Z,52.00
2024-01-11T04:07:35.234Z,52.00
2024-01-11T04:08:08.136Z,52.67
2024-01-11T04:08:40.378Z,53.00
2024-01-11T04:09:12.552Z,53.00
2024-01-11T04:09:46.003Z,53.00
2024-01-11T04:10:18.971Z,53.33
2024-01-11T04:10:50.956Z,54.00
2024-01-11T04:11:23.006Z,54.00
2024-01-11T04:11:55.098Z,54.67
2024-01-11T04:12:27.126Z,55.00
2024-01-11T04:12:59.347Z,55.00
2024-01-11T04:13:31.365Z,55.00
2024-01-11T04:14:03.697Z,55.00
2024-01-11T04:14:39.364Z,56.00
2024-01-11T04:15:13.414Z,56.00
2024-01-11T04:15:45.707Z,56.67
2024-01-11T04:16:17.733Z,57.00
2024-01-11T04:16:49.813Z,57.00
2024-01-11T04:17:21.953Z,57.33
2024-01-11T04:17:54.121Z,58.00
2024-01-11T04:18:26.426Z,58.00
2024-01-11T04:18:58.572Z,59.00
2024-01-11T04:19:30.716Z,59.67
2024-01-11T04:20:02.994Z,60.67
2024-01-11T04:20:35.497Z,61.00
2024-01-11T04:21:07.756Z,61.00
2024-01-11T04:21:39.788Z,62.00
2024-01-11T04:22:11.828Z,62.33
2024-01-11T04:22:43.867Z,63.33
2024-01-11T04:23:15.972Z,65.33
2024-01-11T04:23:48.557Z,66.67
2024-01-11T04:24:20.686Z,67.33
2024-01-11T04:24:54.106Z,68.33
2024-01-11T04:25:26.158Z,70.33
2024-01-11T04:25:58.406Z,73.00
2024-01-11T04:26:30.680Z,74.67
2024-01-11T04:27:02.842Z,76.00
2024-01-11T04:27:34.825Z,76.00
2024-01-11T04:28:06.880Z,78.00
2024-01-11T04:28:38.912Z,80.67
2024-01-11T04:29:11.228Z,83.33
2024-01-11T04:29:43.341Z,87.67
2024-01-11T04:30:15.758Z,95.33
2024-01-11T04:30:47.905Z,103.33
2024-01-11T04:31:20.206Z,113.00
2024-01-11T04:31:52.407Z,120.67
2024-01-11T04:32:24.488Z,128.00
2024-01-11T04:32:56.766Z,134.33
2024-01-11T04:33:28.888Z,136.33
2024-01-11T04:34:01.344Z,137.33
2024-01-11T04:34:33.509Z,137.00
2024-01-11T04:35:06.551Z,135.33
2024-01-11T04:35:38.826Z,136.00
2024-01-11T04:36:11.558Z,137.00
2024-01-11T04:36:43.764Z,137.33
2024-01-11T04:37:15.854Z,135.67
2024-01-11T04:37:47.957Z,134.67
2024-01-11T04:38:20.086Z,133.67
2024-01-11T04:38:52.283Z,135.00
2024-01-11T04:39:24.514Z,131.33
2024-01-11T04:39:58.043Z,128.33
2024-01-11T04:40:30.169Z,125.67
2024-01-11T04:41:09.129Z,124.33
2024-01-11T04:41:41.455Z,123.00
2024-01-11T04:42:13.527Z,122.00
2024-01-11T04:42:45.583Z,121.33
2024-01-11T04:43:17.744Z,121.00
2024-01-11T04:43:49.750Z,120.67
2024-01-11T04:44:21.904Z,121.00
2024-01-11T04:44:53.963Z,120.67
2024-01-11T04:45:26.008Z,120.00
2024-01-11T04:45:57.981Z,119.33
2024-01-11T04:46:30.129Z,118.00
2024-01-11T04:47:02.370Z,115.67
2024-01-11T04:47:34.594Z,113.00
2024-01-11T04:48:08.049Z,110.00
2024-01-11T04:48:40.213Z,108.33
2024-01-11T04:49:12.494Z,106.33
2024-01-11T04:49:44.724Z,106.00
2024-01-11T04:50:18.212Z,106.67
2024-01-11T04:50:51.496Z,108.33
2024-01-11T04:51:23.709Z,109.67
2024-01-11T04:51:55.761Z,110.00
2024-01-11T04:52:28.145Z,110.33
2024-01-11T04:53:00.220Z,111.67
2024-01-11T04:53:32.244Z,112.67
2024-01-11T04:54:04.351Z,113.67
2024-01-11T04:54:36.326Z,114.00
2024-01-11T04:55:10.120Z,114.00
2024-01-11T04:55:42.417Z,114.00
2024-01-11T04:56:16.900Z,114.00
2024-01-11T04:56:49.098Z,114.00
2024-01-11T04:57:21.341Z,114.00
2024-01-11T04:57:53.554Z,114.00
2024-01-11T04:58:25.614Z,114.00
2024-01-11T04:58:57.747Z,113.33
2024-01-11T04:59:29.903Z,113.00
2024-01-11T05:00:03.830Z,113.00
2024-01-11T05:00:36.388Z,113.00
2024-01-11T05:01:12.546Z,112.67
2024-01-11T05:01:46.812Z,112.00
2024-01-11T05:02:18.896Z,111.67
2024-01-11T05:02:51.245Z,110.33
2024-01-11T05:03:23.396Z,108.67
2024-01-11T05:03:55.483Z,106.67
2024-01-11T05:04:27.566Z,104.00
2024-01-11T05:04:59.618Z,100.33
2024-01-11T05:05:31.773Z,97.00
2024-01-11T05:06:04.301Z,94.00
2024-01-11T05:06:36.387Z,91.67
2024-01-11T05:07:08.519Z,91.33
2024-01-11T05:07:40.645Z,91.67
2024-01-11T05:08:12.708Z,93.00
2024-01-11T05:08:45.183Z,94.33
2024-01-11T05:09:17.340Z,95.33
2024-01-11T05:09:49.437Z,96.67
2024-01-11T05:10:22.880Z,97.33
2024-01-11T05:10:55.009Z,98.00
2024-01-11T05:11:27.094Z,98.33
2024-01-11T05:11:59.397Z,99.00
2024-01-11T05:12:31.462Z,100.00
2024-01-11T05:13:03.826Z,101.33
2024-01-11T05:13:36.126Z,102.67
2024-01-11T05:14:08.321Z,103.33
2024-01-11T05:14:40.461Z,104.00
2024-01-11T05:15:12.623Z,104.00
2024-01-11T05:15:44.704Z,104.00
2024-01-11T05:16:21.199Z,103.00
2024-01-11T05:16:53.318Z,103.67
2024-01-11T05:17:27.419Z,104.00
2024-01-11T05:17:59.639Z,105.00
2024-01-11T05:18:34.617Z,105.00
2024-01-11T05:19:07.328Z,105.00
2024-01-11T05:19:39.653Z,105.67
2024-01-11T05:20:12.337Z,106.00
2024-01-11T05:20:44.677Z,106.33
2024-01-11T05:21:16.858Z,107.00
2024-01-11T05:21:48.915Z,107.67
2024-01-11T05:22:20.994Z,110.00
2024-01-11T05:22:53.059Z,112.33
2024-01-11T05:23:25.128Z,117.33
2024-01-11T05:23:57.316Z,120.67
2024-01-11T05:24:29.388Z,123.00
2024-01-11T05:25:01.494Z,122.00
2024-01-11T05:25:34.881Z,121.00
2024-01-11T05:26:07.000Z,120.00
2024-01-11T05:26:39.312Z,119.00
2024-01-11T05:27:11.494Z,119.00
2024-01-11T05:27:43.616Z,117.67
2024-01-11T05:28:15.646Z,116.00
2024-01-11T05:28:47.824Z,113.67
2024-01-11T05:29:19.897Z,112.67
2024-01-11T05:29:51.904Z,111.00
2024-01-11T05:30:25.766Z,108.33
2024-01-11T05:31:00.430Z,106.67
2024-01-11T05:31:32.860Z,105.67
2024-01-11T05:32:05.747Z,105.00
2024-01-11T05:32:38.010Z,103.67
2024-01-11T05:33:10.391Z,103.00
2024-01-11T05:33:43.478Z,101.33
2024-01-11T05:34:16.118Z,100.67
2024-01-11T05:34:48.595Z,100.00
2024-01-11T05:35:20.963Z,100.00
2024-01-11T05:35:53.096Z,100.00
2024-01-11T05:36:25.245Z,100.00
2024-01-11T05:36:59.111Z,100.00
2024-01-11T05:37:35.480Z,100.00
2024-01-11T05:38:07.571Z,100.00
2024-01-11T05:38:40.294Z,101.00
2024-01-11T05:39:12.519Z,101.00
2024-01-11T05:39:44.615Z,102.33
2024-01-11T05:40:16.790Z,105.67
2024-01-11T05:40:50.288Z,116.00
2024-01-11T05:41:22.392Z,125.00
2024-01-11T05:41:54.548Z,125.33
2024-01-11T05:42:26.600Z,126.33
2024-01-11T05:42:58.646Z,130.33
2024-01-11T05:43:30.959Z,133.67
2024-01-11T05:44:03.049Z,132.33
2024-01-11T05:44:35.291Z,133.00
2024-01-11T05:45:08.134Z,131.33
2024-01-11T05:45:47.504Z,129.67
2024-01-11T05:46:20.347Z,127.67
2024-01-11T05:46:52.371Z,127.00
2024-01-11T05:47:24.511Z,127.67
2024-01-11T05:47:56.654Z,128.67
2024-01-11T05:48:28.812Z,129.00
2024-01-11T05:49:01.005Z,129.00
2024-01-11T05:49:33.173Z,129.00
2024-01-11T05:50:06.084Z,128.00
2024-01-11T05:50:38.389Z,126.67
2024-01-11T05:51:10.621Z,125.33
2024-01-11T05:51:42.687Z,124.00
2024-01-11T05:52:14.837Z,123.67
2024-01-11T05:52:46.891Z,123.00
2024-01-11T05:53:18.984Z,122.67
2024-01-11T05:53:50.960Z,123.00
2024-01-11T05:54:22.972Z,124.00
2024-01-11T05:54:55.248Z,124.00
2024-01-11T05:55:27.346Z,124.00
2024-01-11T05:56:00.754Z,123.00
2024-01-11T05:56:32.780Z,123.00
2024-01-11T05:57:05.194Z,123.00
2024-01-11T05:57:37.233Z,123.00
2024-01-11T05:58:09.387Z,123.67
2024-01-11T05:58:41.671Z,125.00
2024-01-11T05:59:13.773Z,127.67
2024-01-11T05:59:45.851Z,147.67
2024-01-11T06:00:19.053Z,187.33
2024-01-11T06:00:51.153Z,205.67
2024-01-11T06:01:23.324Z,214.67
2024-01-11T06:01:55.389Z,228.67
2024-01-11T06:02:27.758Z,243.00
2024-01-11T06:02:59.757Z,245.67
2024-01-11T06:03:32.009Z,251.67
2024-01-11T06:04:04.306Z,261.33
2024-01-11T06:04:36.315Z,269.00
2024-01-11T06:05:09.788Z,274.33
2024-01-11T06:05:42.072Z,274.00
2024-01-11T06:06:14.248Z,263.33
2024-01-11T06:06:46.546Z,257.33
2024-01-11T06:07:18.578Z,254.33
2024-01-11T06:07:51.284Z,254.67
2024-01-11T06:08:23.374Z,247.67
2024-01-11T06:08:55.531Z,240.67
2024-01-11T06:09:27.699Z,233.33
2024-01-11T06:10:00.116Z,228.33
2024-01-11T06:10:32.405Z,226.00
2024-01-11T06:11:05.939Z,223.33
2024-01-11T06:11:38.028Z,222.33
2024-01-11T06:12:10.135Z,221.33
2024-01-11T06:12:42.161Z,220.67
2024-01-11T06:13:14.234Z,218.67
2024-01-11T06:13:46.416Z,212.00
2024-01-11T06:14:18.540Z,205.00
2024-01-11T06:14:50.658Z,194.00
2024-01-11T06:15:22.707Z,184.67
2024-01-11T06:15:54.980Z,182.67
2024-01-11T06:16:27.070Z,182.33
2024-01-11T06:16:59.198Z,182.67
2024-01-11T06:17:31.446Z,181.67
2024-01-11T06:18:04.171Z,182.67
2024-01-11T06:18:36.466Z,181.33
2024-01-11T06:19:08.596Z,181.33
2024-01-11T06:19:40.691Z,183.67
2024-01-11T06:20:13.122Z,184.67
2024-01-11T06:20:45.380Z,183.67
2024-01-11T06:21:17.542Z,184.33
2024-01-11T06:21:49.604Z,185.00
2024-01-11T06:22:21.681Z,181.33
2024-01-11T06:22:53.702Z,174.33
2024-01-11T06:23:26.969Z,169.00
2024-01-11T06:23:59.086Z,162.33
2024-01-11T06:24:31.198Z,163.67
2024-01-11T06:25:03.350Z,165.67
2024-01-11T06:25:35.469Z,163.33
2024-01-11T06:26:09.234Z,163.33
2024-01-11T06:26:41.432Z,162.67
2024-01-11T06:27:13.633Z,157.67
2024-01-11T06:27:46.071Z,156.33
2024-01-11T06:28:23.716Z,151.67
2024-01-11T06:28:55.919Z,149.33
2024-01-11T06:29:28.577Z,147.33
2024-01-11T06:30:00.701Z,148.67
2024-01-11T06:30:32.758Z,150.33
2024-01-11T06:31:05.485Z,150.00
2024-01-11T06:31:39.264Z,151.00
2024-01-11T06:32:11.350Z,152.67
2024-01-11T06:32:43.495Z,154.00
2024-01-11T06:33:15.946Z,154.33
2024-01-11T06:33:51.020Z,154.33
2024-01-11T06:34:23.614Z,155.33
2024-01-11T06:34:55.771Z,156.00
2024-01-11T06:35:27.907Z,156.33
2024-01-11T06:36:00.070Z,157.00
2024-01-11T06:36:32.102Z,156.33
2024-01-11T06:37:04.385Z,155.67
2024-01-11T06:37:36.592Z,154.67
2024-01-11T06:38:08.933Z,154.00
2024-01-11T06:38:41.219Z,153.00
2024-01-11T06:39:13.269Z,154.00
2024-01-11T06:39:45.310Z,156.00
2024-01-11T06:40:17.558Z,161.33
2024-01-11T06:40:49.615Z,164.00
2024-01-11T06:41:23.171Z,163.00
2024-01-11T06:41:55.175Z,160.00
2024-01-11T06:42:27.250Z,155.33
2024-01-11T06:42:59.295Z,152.00
2024-01-11T06:43:31.402Z,150.67
2024-01-11T06:44:03.579Z,150.33
2024-01-11T06:44:35.830Z,151.33
2024-01-11T06:45:09.176Z,152.00
2024-01-11T06:45:41.178Z,152.00
2024-01-11T06:46:13.207Z,152.00
2024-01-11T06:46:45.290Z,152.00
2024-01-11T06:47:17.325Z,152.00
2024-01-11T06:47:49.565Z,152.33
2024-01-11T06:48:21.782Z,153.00
2024-01-11T06:48:53.984Z,153.33
2024-01-11T06:49:26.175Z,155.33
2024-01-11T06:49:58.277Z,157.67
2024-01-11T06:50:30.562Z,158.33
2024-01-11T06:51:02.829Z,159.00
2024-01-11T06:51:35.239Z,169.67
2024-01-11T06:52:07.219Z,213.33
2024-01-11T06:52:39.694Z,224.00
2024-01-11T06:53:11.903Z,206.67
2024-01-11T06:53:44.139Z,192.00
2024-01-11T06:54:16.236Z,186.00
2024-01-11T06:54:48.569Z,184.00